sensor_id;sensor_type;location;lat;lon;timestamp;P1;durP1;ratioP1;P2;durP2;ratioP2
37559;SDS011;23398;50.928;7.084;2023-08-06T00:02:22;2.38;;;2.00;;
37559;SDS011;23398;50.928;7.084;2023-08-06T00:04:48;2.55;;;1.95;;
37559;SDS011;23398;50.928;7.084;2023-08-06T00:07:13;3.15;;;2.05;;
37559;SDS011;23398;50.928;7.084;2023-08-06T00:09:39;2.60;;;1.90;;
37559;SDS011;23398;50.928;7.084;2023-08-06T00:12:05;2.67;;;2.17;;
37559;SDS011;23398;50.928;7.084;2023-08-06T00:14:30;2.63;;;1.80;;
37559;SDS011;23398;50.928;7.084;2023-08-06T00:16:56;2.90;;;1.90;;
37559;SDS011;23398;50.928;7.084;2023-08-06T00:19:21;2.95;;;1.98;;
37559;SDS011;23398;50.928;7.084;2023-08-06T00:21:47;3.38;;;2.22;;
37559;SDS011;23398;50.928;7.084;2023-08-06T00:24:13;3.58;;;1.98;;
37559;SDS011;23398;50.928;7.084;2023-08-06T00:26:38;2.75;;;1.80;;
37559;SDS011;23398;50.928;7.084;2023-08-06T00:29:04;3.20;;;1.90;;
37559;SDS011;23398;50.928;7.084;2023-08-06T00:31:30;4.88;;;2.15;;
37559;SDS011;23398;50.928;7.084;2023-08-06T00:33:55;2.22;;;1.90;;
37559;SDS011;23398;50.928;7.084;2023-08-06T00:36:21;2.67;;;2.10;;
37559;SDS011;23398;50.928;7.084;2023-08-06T00:38:46;4.25;;;2.10;;
37559;SDS011;23398;50.928;7.084;2023-08-06T00:41:12;3.22;;;2.03;;
37559;SDS011;23398;50.928;7.084;2023-08-06T00:43:37;2.65;;;2.05;;
37559;SDS011;23398;50.928;7.084;2023-08-06T00:46:03;2.72;;;2.00;;
37559;SDS011;23398;50.928;7.084;2023-08-06T00:48:29;3.47;;;1.98;;
37559;SDS011;23398;50.928;7.084;2023-08-06T00:50:54;4.15;;;2.00;;
37559;SDS011;23398;50.928;7.084;2023-08-06T00:53:20;2.63;;;1.95;;
37559;SDS011;23398;50.928;7.084;2023-08-06T00:55:46;2.50;;;2.00;;
37559;SDS011;23398;50.928;7.084;2023-08-06T00:58:12;2.10;;;1.90;;
37559;SDS011;23398;50.928;7.084;2023-08-06T01:00:39;2.67;;;2.05;;
37559;SDS011;23398;50.928;7.084;2023-08-06T01:03:04;2.30;;;2.10;;
37559;SDS011;23398;50.928;7.084;2023-08-06T01:05:30;3.90;;;2.28;;
37559;SDS011;23398;50.928;7.084;2023-08-06T01:13:24;3.65;;;2.20;;
37559;SDS011;23398;50.928;7.084;2023-08-06T01:15:55;2.83;;;1.98;;
37559;SDS011;23398;50.928;7.084;2023-08-06T01:18:23;2.35;;;2.00;;
37559;SDS011;23398;50.928;7.084;2023-08-06T01:20:48;3.00;;;2.38;;
37559;SDS011;23398;50.928;7.084;2023-08-06T01:23:15;3.08;;;2.13;;
37559;SDS011;23398;50.928;7.084;2023-08-06T01:28:33;3.20;;;2.58;;
37559;SDS011;23398;50.928;7.084;2023-08-06T01:31:01;2.40;;;2.20;;
37559;SDS011;23398;50.928;7.084;2023-08-06T01:33:30;2.03;;;1.83;;
37559;SDS011;23398;50.928;7.084;2023-08-06T01:35:57;5.07;;;2.08;;
37559;SDS011;23398;50.928;7.084;2023-08-06T01:38:23;3.33;;;2.38;;
37559;SDS011;23398;50.928;7.084;2023-08-06T01:40:49;2.72;;;2.08;;
37559;SDS011;23398;50.928;7.084;2023-08-06T01:43:15;2.92;;;2.10;;
37559;SDS011;23398;50.928;7.084;2023-08-06T01:45:40;2.35;;;2.10;;
37559;SDS011;23398;50.928;7.084;2023-08-06T01:48:06;2.33;;;2.13;;
37559;SDS011;23398;50.928;7.084;2023-08-06T01:50:32;3.60;;;2.17;;
37559;SDS011;23398;50.928;7.084;2023-08-06T01:52:57;2.10;;;1.92;;
37559;SDS011;23398;50.928;7.084;2023-08-06T01:55:23;2.75;;;2.08;;
37559;SDS011;23398;50.928;7.084;2023-08-06T01:57:48;2.20;;;2.00;;
37559;SDS011;23398;50.928;7.084;2023-08-06T02:00:14;2.30;;;2.10;;
37559;SDS011;23398;50.928;7.084;2023-08-06T02:02:40;2.90;;;2.05;;
37559;SDS011;23398;50.928;7.084;2023-08-06T02:05:08;1.85;;;1.75;;
37559;SDS011;23398;50.928;7.084;2023-08-06T02:07:34;2.22;;;2.00;;
37559;SDS011;23398;50.928;7.084;2023-08-06T02:09:59;2.17;;;1.90;;
37559;SDS011;23398;50.928;7.084;2023-08-06T02:12:25;2.10;;;1.85;;
37559;SDS011;23398;50.928;7.084;2023-08-06T02:14:50;2.45;;;2.13;;
37559;SDS011;23398;50.928;7.084;2023-08-06T02:17:16;3.42;;;1.90;;
37559;SDS011;23398;50.928;7.084;2023-08-06T02:19:41;2.53;;;2.15;;
37559;SDS011;23398;50.928;7.084;2023-08-06T02:22:08;2.00;;;1.80;;
37559;SDS011;23398;50.928;7.084;2023-08-06T02:24:33;2.53;;;1.80;;
37559;SDS011;23398;50.928;7.084;2023-08-06T02:26:59;2.00;;;1.80;;
37559;SDS011;23398;50.928;7.084;2023-08-06T02:29:25;2.40;;;2.00;;
37559;SDS011;23398;50.928;7.084;2023-08-06T02:31:50;2.58;;;1.95;;
37559;SDS011;23398;50.928;7.084;2023-08-06T02:34:16;2.35;;;2.00;;
37559;SDS011;23398;50.928;7.084;2023-08-06T02:36:41;2.97;;;2.03;;
37559;SDS011;23398;50.928;7.084;2023-08-06T02:39:07;2.05;;;1.85;;
37559;SDS011;23398;50.928;7.084;2023-08-06T02:41:32;3.38;;;1.77;;
37559;SDS011;23398;50.928;7.084;2023-08-06T02:43:58;2.20;;;1.70;;
37559;SDS011;23398;50.928;7.084;2023-08-06T02:46:24;2.05;;;1.77;;
37559;SDS011;23398;50.928;7.084;2023-08-06T02:48:49;3.72;;;1.90;;
37559;SDS011;23398;50.928;7.084;2023-08-06T02:51:14;2.60;;;1.73;;
37559;SDS011;23398;50.928;7.084;2023-08-06T02:53:40;3.40;;;1.80;;
37559;SDS011;23398;50.928;7.084;2023-08-06T02:56:06;2.53;;;1.70;;
37559;SDS011;23398;50.928;7.084;2023-08-06T02:58:31;2.22;;;1.77;;
37559;SDS011;23398;50.928;7.084;2023-08-06T03:01:04;2.10;;;1.90;;
37559;SDS011;23398;50.928;7.084;2023-08-06T03:03:32;3.78;;;2.03;;
37559;SDS011;23398;50.928;7.084;2023-08-06T03:05:58;2.03;;;1.80;;
37559;SDS011;23398;50.928;7.084;2023-08-06T03:08:24;2.22;;;1.80;;
37559;SDS011;23398;50.928;7.084;2023-08-06T03:10:51;2.22;;;2.00;;
37559;SDS011;23398;50.928;7.084;2023-08-06T03:13:17;2.30;;;1.60;;
37559;SDS011;23398;50.928;7.084;2023-08-06T03:15:43;2.63;;;1.83;;
37559;SDS011;23398;50.928;7.084;2023-08-06T03:18:16;2.40;;;1.48;;
37559;SDS011;23398;50.928;7.084;2023-08-06T03:20:41;2.10;;;1.63;;
37559;SDS011;23398;50.928;7.084;2023-08-06T03:23:07;2.08;;;1.90;;
37559;SDS011;23398;50.928;7.084;2023-08-06T03:25:34;1.92;;;1.73;;
37559;SDS011;23398;50.928;7.084;2023-08-06T03:28:01;3.15;;;2.10;;
37559;SDS011;23398;50.928;7.084;2023-08-06T03:30:27;2.55;;;2.05;;
37559;SDS011;23398;50.928;7.084;2023-08-06T03:32:52;2.40;;;1.80;;
37559;SDS011;23398;50.928;7.084;2023-08-06T03:35:18;4.03;;;2.25;;
37559;SDS011;23398;50.928;7.084;2023-08-06T03:37:43;2.55;;;1.65;;
37559;SDS011;23398;50.928;7.084;2023-08-06T03:40:09;2.20;;;1.98;;
37559;SDS011;23398;50.928;7.084;2023-08-06T03:42:35;3.03;;;2.00;;
37559;SDS011;23398;50.928;7.084;2023-08-06T03:45:01;2.10;;;1.90;;
37559;SDS011;23398;50.928;7.084;2023-08-06T03:47:26;2.20;;;2.00;;
37559;SDS011;23398;50.928;7.084;2023-08-06T03:49:52;3.15;;;2.03;;
37559;SDS011;23398;50.928;7.084;2023-08-06T03:52:18;2.20;;;1.70;;
37559;SDS011;23398;50.928;7.084;2023-08-06T03:54:43;3.25;;;1.67;;
37559;SDS011;23398;50.928;7.084;2023-08-06T03:57:09;3.03;;;1.95;;
37559;SDS011;23398;50.928;7.084;2023-08-06T03:59:35;3.65;;;1.75;;
37559;SDS011;23398;50.928;7.084;2023-08-06T04:02:01;2.17;;;1.92;;
37559;SDS011;23398;50.928;7.084;2023-08-06T04:04:26;1.98;;;1.77;;
37559;SDS011;23398;50.928;7.084;2023-08-06T04:06:52;3.40;;;1.65;;
37559;SDS011;23398;50.928;7.084;2023-08-06T04:09:17;2.97;;;1.80;;
37559;SDS011;23398;50.928;7.084;2023-08-06T04:11:43;2.92;;;1.67;;
37559;SDS011;23398;50.928;7.084;2023-08-06T04:14:08;1.70;;;1.58;;
37559;SDS011;23398;50.928;7.084;2023-08-06T04:16:34;2.88;;;2.03;;
37559;SDS011;23398;50.928;7.084;2023-08-06T04:19:00;2.25;;;1.80;;
37559;SDS011;23398;50.928;7.084;2023-08-06T04:21:25;1.73;;;1.63;;
37559;SDS011;23398;50.928;7.084;2023-08-06T04:23:51;2.97;;;1.77;;
37559;SDS011;23398;50.928;7.084;2023-08-06T04:26:16;2.22;;;1.83;;
37559;SDS011;23398;50.928;7.084;2023-08-06T04:28:42;2.35;;;1.55;;
37559;SDS011;23398;50.928;7.084;2023-08-06T04:31:08;2.08;;;1.65;;
37559;SDS011;23398;50.928;7.084;2023-08-06T04:33:33;3.15;;;1.90;;
37559;SDS011;23398;50.928;7.084;2023-08-06T04:35:59;2.30;;;1.67;;
37559;SDS011;23398;50.928;7.084;2023-08-06T04:38:25;2.92;;;1.98;;
37559;SDS011;23398;50.928;7.084;2023-08-06T04:40:51;3.72;;;2.40;;
37559;SDS011;23398;50.928;7.084;2023-08-06T04:43:17;4.75;;;3.42;;
37559;SDS011;23398;50.928;7.084;2023-08-06T04:45:49;3.03;;;2.72;;
37559;SDS011;23398;50.928;7.084;2023-08-06T04:48:15;3.33;;;2.35;;
37559;SDS011;23398;50.928;7.084;2023-08-06T04:50:44;4.15;;;2.97;;
37559;SDS011;23398;50.928;7.084;2023-08-06T04:53:11;2.75;;;2.28;;
37559;SDS011;23398;50.928;7.084;2023-08-06T04:55:37;3.03;;;2.10;;
37559;SDS011;23398;50.928;7.084;2023-08-06T04:58:02;2.00;;;1.70;;
37559;SDS011;23398;50.928;7.084;2023-08-06T05:00:28;3.83;;;1.67;;
37559;SDS011;23398;50.928;7.084;2023-08-06T05:02:54;3.08;;;2.10;;
37559;SDS011;23398;50.928;7.084;2023-08-06T05:05:19;3.35;;;1.85;;
37559;SDS011;23398;50.928;7.084;2023-08-06T05:07:45;2.47;;;1.90;;
37559;SDS011;23398;50.928;7.084;2023-08-06T05:10:13;2.58;;;1.80;;
37559;SDS011;23398;50.928;7.084;2023-08-06T05:12:39;7.72;;;4.35;;
37559;SDS011;23398;50.928;7.084;2023-08-06T05:15:05;9.25;;;4.95;;
37559;SDS011;23398;50.928;7.084;2023-08-06T05:17:30;8.02;;;4.35;;
37559;SDS011;23398;50.928;7.084;2023-08-06T05:19:56;7.90;;;4.65;;
37559;SDS011;23398;50.928;7.084;2023-08-06T05:22:21;8.15;;;4.28;;
37559;SDS011;23398;50.928;7.084;2023-08-06T05:24:47;4.85;;;2.88;;
37559;SDS011;23398;50.928;7.084;2023-08-06T05:27:13;4.40;;;3.00;;
37559;SDS011;23398;50.928;7.084;2023-08-06T05:29:38;3.72;;;2.55;;
37559;SDS011;23398;50.928;7.084;2023-08-06T05:32:04;3.03;;;2.30;;
37559;SDS011;23398;50.928;7.084;2023-08-06T05:34:30;3.08;;;2.08;;
37559;SDS011;23398;50.928;7.084;2023-08-06T05:36:55;2.55;;;1.95;;
37559;SDS011;23398;50.928;7.084;2023-08-06T05:39:21;2.40;;;2.10;;
37559;SDS011;23398;50.928;7.084;2023-08-06T05:41:46;7.03;;;3.10;;
37559;SDS011;23398;50.928;7.084;2023-08-06T05:44:12;4.88;;;2.65;;
37559;SDS011;23398;50.928;7.084;2023-08-06T05:46:37;2.90;;;1.98;;
37559;SDS011;23398;50.928;7.084;2023-08-06T05:49:03;2.47;;;1.65;;
37559;SDS011;23398;50.928;7.084;2023-08-06T05:51:30;2.63;;;1.85;;
37559;SDS011;23398;50.928;7.084;2023-08-06T05:53:55;3.17;;;1.70;;
37559;SDS011;23398;50.928;7.084;2023-08-06T05:56:21;3.03;;;1.80;;
37559;SDS011;23398;50.928;7.084;2023-08-06T05:58:46;2.08;;;1.70;;
37559;SDS011;23398;50.928;7.084;2023-08-06T06:01:12;1.90;;;1.50;;
37559;SDS011;23398;50.928;7.084;2023-08-06T06:03:38;1.63;;;1.48;;
37559;SDS011;23398;50.928;7.084;2023-08-06T06:06:03;3.28;;;1.60;;
37559;SDS011;23398;50.928;7.084;2023-08-06T06:08:29;3.28;;;1.40;;
37559;SDS011;23398;50.928;7.084;2023-08-06T06:10:54;2.63;;;1.35;;
37559;SDS011;23398;50.928;7.084;2023-08-06T06:13:20;1.95;;;1.27;;
37559;SDS011;23398;50.928;7.084;2023-08-06T06:15:46;3.33;;;1.60;;
37559;SDS011;23398;50.928;7.084;2023-08-06T06:18:12;1.60;;;1.50;;
37559;SDS011;23398;50.928;7.084;2023-08-06T06:20:38;2.45;;;1.70;;
37559;SDS011;23398;50.928;7.084;2023-08-06T06:23:03;1.73;;;1.40;;
37559;SDS011;23398;50.928;7.084;2023-08-06T06:25:29;1.80;;;1.40;;
37559;SDS011;23398;50.928;7.084;2023-08-06T06:27:54;1.95;;;1.45;;
37559;SDS011;23398;50.928;7.084;2023-08-06T06:30:20;2.70;;;1.70;;
37559;SDS011;23398;50.928;7.084;2023-08-06T06:32:46;1.92;;;1.50;;
37559;SDS011;23398;50.928;7.084;2023-08-06T06:35:12;1.52;;;1.40;;
37559;SDS011;23398;50.928;7.084;2023-08-06T06:37:37;1.95;;;1.38;;
37559;SDS011;23398;50.928;7.084;2023-08-06T06:40:03;2.10;;;1.60;;
37559;SDS011;23398;50.928;7.084;2023-08-06T06:42:29;4.30;;;1.40;;
37559;SDS011;23398;50.928;7.084;2023-08-06T06:44:55;2.53;;;1.30;;
37559;SDS011;23398;50.928;7.084;2023-08-06T06:47:20;2.85;;;1.60;;
37559;SDS011;23398;50.928;7.084;2023-08-06T06:49:46;2.95;;;1.65;;
37559;SDS011;23398;50.928;7.084;2023-08-06T06:52:12;1.58;;;1.45;;
37559;SDS011;23398;50.928;7.084;2023-08-06T06:54:37;2.97;;;1.48;;
37559;SDS011;23398;50.928;7.084;2023-08-06T06:57:03;1.50;;;1.15;;
37559;SDS011;23398;50.928;7.084;2023-08-06T06:59:29;2.08;;;1.00;;
37559;SDS011;23398;50.928;7.084;2023-08-06T07:01:55;1.05;;;0.95;;
37559;SDS011;23398;50.928;7.084;2023-08-06T07:04:20;1.00;;;0.90;;
37559;SDS011;23398;50.928;7.084;2023-08-06T07:06:46;1.52;;;1.10;;
37559;SDS011;23398;50.928;7.084;2023-08-06T07:09:12;1.27;;;1.05;;
37559;SDS011;23398;50.928;7.084;2023-08-06T07:11:38;0.95;;;0.85;;
37559;SDS011;23398;50.928;7.084;2023-08-06T07:14:03;0.73;;;0.73;;
37559;SDS011;23398;50.928;7.084;2023-08-06T07:16:29;0.75;;;0.75;;
37559;SDS011;23398;50.928;7.084;2023-08-06T07:18:54;1.30;;;0.90;;
37559;SDS011;23398;50.928;7.084;2023-08-06T07:21:20;1.10;;;0.80;;
37559;SDS011;23398;50.928;7.084;2023-08-06T07:23:46;0.80;;;0.80;;
37559;SDS011;23398;50.928;7.084;2023-08-06T07:26:14;0.90;;;0.70;;
37559;SDS011;23398;50.928;7.084;2023-08-06T07:28:41;1.90;;;0.85;;
37559;SDS011;23398;50.928;7.084;2023-08-06T07:31:06;2.88;;;1.10;;
37559;SDS011;23398;50.928;7.084;2023-08-06T07:33:32;0.75;;;0.75;;
37559;SDS011;23398;50.928;7.084;2023-08-06T07:35:57;3.15;;;0.95;;
37559;SDS011;23398;50.928;7.084;2023-08-06T07:38:23;0.80;;;0.70;;
37559;SDS011;23398;50.928;7.084;2023-08-06T07:40:49;1.20;;;0.98;;
37559;SDS011;23398;50.928;7.084;2023-08-06T07:43:14;0.93;;;0.80;;
37559;SDS011;23398;50.928;7.084;2023-08-06T07:45:40;1.05;;;0.95;;
37559;SDS011;23398;50.928;7.084;2023-08-06T07:48:05;1.58;;;0.90;;
37559;SDS011;23398;50.928;7.084;2023-08-06T07:50:31;1.88;;;1.20;;
37559;SDS011;23398;50.928;7.084;2023-08-06T07:52:57;1.10;;;1.00;;
37559;SDS011;23398;50.928;7.084;2023-08-06T07:55:22;1.58;;;1.20;;
37559;SDS011;23398;50.928;7.084;2023-08-06T07:57:48;1.40;;;0.90;;
37559;SDS011;23398;50.928;7.084;2023-08-06T08:00:13;1.17;;;0.80;;
37559;SDS011;23398;50.928;7.084;2023-08-06T08:02:39;0.80;;;0.80;;
37559;SDS011;23398;50.928;7.084;2023-08-06T08:05:05;1.60;;;0.90;;
37559;SDS011;23398;50.928;7.084;2023-08-06T08:07:32;1.30;;;1.00;;
37559;SDS011;23398;50.928;7.084;2023-08-06T08:09:57;2.72;;;1.30;;
37559;SDS011;23398;50.928;7.084;2023-08-06T08:12:23;1.20;;;1.00;;
37559;SDS011;23398;50.928;7.084;2023-08-06T08:14:49;1.55;;;0.90;;
37559;SDS011;23398;50.928;7.084;2023-08-06T08:17:14;1.33;;;1.00;;
37559;SDS011;23398;50.928;7.084;2023-08-06T08:19:40;1.23;;;1.02;;
37559;SDS011;23398;50.928;7.084;2023-08-06T08:22:06;1.70;;;1.10;;
37559;SDS011;23398;50.928;7.084;2023-08-06T08:24:31;2.08;;;1.10;;
37559;SDS011;23398;50.928;7.084;2023-08-06T08:26:57;1.33;;;1.10;;
37559;SDS011;23398;50.928;7.084;2023-08-06T08:29:23;1.67;;;1.02;;
37559;SDS011;23398;50.928;7.084;2023-08-06T08:31:49;1.40;;;0.88;;
37559;SDS011;23398;50.928;7.084;2023-08-06T08:34:18;0.88;;;0.82;;
37559;SDS011;23398;50.928;7.084;2023-08-06T08:36:44;1.48;;;0.98;;
37559;SDS011;23398;50.928;7.084;2023-08-06T08:39:12;1.02;;;0.88;;
37559;SDS011;23398;50.928;7.084;2023-08-06T08:41:38;1.08;;;0.90;;
37559;SDS011;23398;50.928;7.084;2023-08-06T08:44:05;1.17;;;0.98;;
37559;SDS011;23398;50.928;7.084;2023-08-06T08:46:36;0.90;;;0.80;;
37559;SDS011;23398;50.928;7.084;2023-08-06T08:49:03;1.10;;;0.80;;
37559;SDS011;23398;50.928;7.084;2023-08-06T08:51:29;0.80;;;0.80;;
37559;SDS011;23398;50.928;7.084;2023-08-06T08:53:56;1.17;;;0.93;;
37559;SDS011;23398;50.928;7.084;2023-08-06T08:56:22;1.88;;;0.85;;
37559;SDS011;23398;50.928;7.084;2023-08-06T08:58:48;1.48;;;1.05;;
37559;SDS011;23398;50.928;7.084;2023-08-06T09:01:15;0.93;;;0.85;;
37559;SDS011;23398;50.928;7.084;2023-08-06T09:03:41;1.02;;;0.93;;
37559;SDS011;23398;50.928;7.084;2023-08-06T09:06:09;3.50;;;1.00;;
37559;SDS011;23398;50.928;7.084;2023-08-06T09:08:37;1.17;;;0.90;;
37559;SDS011;23398;50.928;7.084;2023-08-06T09:11:17;1.15;;;0.93;;
37559;SDS011;23398;50.928;7.084;2023-08-06T09:13:45;1.05;;;0.90;;
37559;SDS011;23398;50.928;7.084;2023-08-06T09:16:12;4.85;;;0.93;;
37559;SDS011;23398;50.928;7.084;2023-08-06T09:18:38;1.00;;;0.90;;
37559;SDS011;23398;50.928;7.084;2023-08-06T09:21:04;1.52;;;0.90;;
37559;SDS011;23398;50.928;7.084;2023-08-06T09:23:30;0.88;;;0.80;;
37559;SDS011;23398;50.928;7.084;2023-08-06T09:25:57;0.80;;;0.80;;
37559;SDS011;23398;50.928;7.084;2023-08-06T09:28:23;0.90;;;0.90;;
37559;SDS011;23398;50.928;7.084;2023-08-06T09:30:52;1.10;;;0.95;;
37559;SDS011;23398;50.928;7.084;2023-08-06T09:33:20;1.10;;;1.00;;
37559;SDS011;23398;50.928;7.084;2023-08-06T09:35:47;1.35;;;1.25;;
37559;SDS011;23398;50.928;7.084;2023-08-06T09:38:13;1.70;;;1.42;;
37559;SDS011;23398;50.928;7.084;2023-08-06T09:40:39;1.60;;;0.93;;
37559;SDS011;23398;50.928;7.084;2023-08-06T09:43:05;1.05;;;0.95;;
37559;SDS011;23398;50.928;7.084;2023-08-06T09:47:59;5.78;;;1.40;;
37559;SDS011;23398;50.928;7.084;2023-08-06T09:50:28;1.20;;;1.00;;
37559;SDS011;23398;50.928;7.084;2023-08-06T09:52:56;1.45;;;1.30;;
37559;SDS011;23398;50.928;7.084;2023-08-06T09:55:22;1.50;;;1.40;;
37559;SDS011;23398;50.928;7.084;2023-08-06T09:57:49;1.40;;;1.30;;
37559;SDS011;23398;50.928;7.084;2023-08-06T10:00:16;1.40;;;1.25;;
37559;SDS011;23398;50.928;7.084;2023-08-06T10:02:42;2.13;;;1.63;;
37559;SDS011;23398;50.928;7.084;2023-08-06T10:05:08;2.80;;;2.50;;
37559;SDS011;23398;50.928;7.084;2023-08-06T10:07:34;2.30;;;2.10;;
37559;SDS011;23398;50.928;7.084;2023-08-06T10:10:01;1.90;;;1.80;;
37559;SDS011;23398;50.928;7.084;2023-08-06T10:12:28;2.40;;;2.20;;
37559;SDS011;23398;50.928;7.084;2023-08-06T10:14:57;2.83;;;1.83;;
37559;SDS011;23398;50.928;7.084;2023-08-06T10:17:26;1.92;;;1.83;;
37559;SDS011;23398;50.928;7.084;2023-08-06T10:19:53;2.85;;;1.60;;
37559;SDS011;23398;50.928;7.084;2023-08-06T10:22:22;1.95;;;1.80;;
37559;SDS011;23398;50.928;7.084;2023-08-06T10:24:49;1.85;;;1.75;;
37559;SDS011;23398;50.928;7.084;2023-08-06T10:27:40;1.70;;;1.60;;
37559;SDS011;23398;50.928;7.084;2023-08-06T10:30:22;1.20;;;1.10;;
37559;SDS011;23398;50.928;7.084;2023-08-06T10:33:01;0.82;;;0.82;;
37559;SDS011;23398;50.928;7.084;2023-08-06T10:35:28;0.80;;;0.80;;
37559;SDS011;23398;50.928;7.084;2023-08-06T10:37:58;1.42;;;0.73;;
37559;SDS011;23398;50.928;7.084;2023-08-06T10:40:32;1.45;;;0.60;;
37559;SDS011;23398;50.928;7.084;2023-08-06T10:42:59;0.60;;;0.60;;
37559;SDS011;23398;50.928;7.084;2023-08-06T10:45:28;1.65;;;0.50;;
37559;SDS011;23398;50.928;7.084;2023-08-06T10:47:55;1.52;;;0.65;;
37559;SDS011;23398;50.928;7.084;2023-08-06T10:50:23;0.50;;;0.50;;
37559;SDS011;23398;50.928;7.084;2023-08-06T10:52:49;0.40;;;0.40;;
37559;SDS011;23398;50.928;7.084;2023-08-06T10:55:22;1.30;;;0.60;;
37559;SDS011;23398;50.928;7.084;2023-08-06T10:57:54;0.75;;;0.60;;
37559;SDS011;23398;50.928;7.084;2023-08-06T11:00:23;1.00;;;0.80;;
37559;SDS011;23398;50.928;7.084;2023-08-06T11:02:49;0.75;;;0.73;;
37559;SDS011;23398;50.928;7.084;2023-08-06T11:05:18;0.93;;;0.90;;
37559;SDS011;23398;50.928;7.084;2023-08-06T11:07:44;1.38;;;0.98;;
37559;SDS011;23398;50.928;7.084;2023-08-06T11:10:12;2.28;;;1.58;;
37559;SDS011;23398;50.928;7.084;2023-08-06T11:12:38;1.20;;;1.08;;
37559;SDS011;23398;50.928;7.084;2023-08-06T11:15:05;1.15;;;1.05;;
37559;SDS011;23398;50.928;7.084;2023-08-06T11:17:31;1.70;;;1.17;;
37559;SDS011;23398;50.928;7.084;2023-08-06T11:20:02;1.42;;;1.10;;
37559;SDS011;23398;50.928;7.084;2023-08-06T11:22:29;1.83;;;1.40;;
37559;SDS011;23398;50.928;7.084;2023-08-06T11:24:55;2.70;;;1.48;;
37559;SDS011;23398;50.928;7.084;2023-08-06T11:27:20;1.77;;;1.27;;
37559;SDS011;23398;50.928;7.084;2023-08-06T11:29:46;1.98;;;1.20;;
37559;SDS011;23398;50.928;7.084;2023-08-06T11:32:12;1.63;;;1.27;;
37559;SDS011;23398;50.928;7.084;2023-08-06T11:34:39;1.77;;;1.20;;
37559;SDS011;23398;50.928;7.084;2023-08-06T11:37:06;2.20;;;1.30;;
37559;SDS011;23398;50.928;7.084;2023-08-06T11:39:32;2.60;;;1.30;;
37559;SDS011;23398;50.928;7.084;2023-08-06T11:41:59;1.58;;;1.40;;
37559;SDS011;23398;50.928;7.084;2023-08-06T11:44:29;1.67;;;1.20;;
37559;SDS011;23398;50.928;7.084;2023-08-06T11:47:00;2.08;;;1.30;;
37559;SDS011;23398;50.928;7.084;2023-08-06T11:52:25;2.05;;;1.00;;
37559;SDS011;23398;50.928;7.084;2023-08-06T11:55:04;1.38;;;1.20;;
37559;SDS011;23398;50.928;7.084;2023-08-06T11:57:33;2.05;;;1.25;;
37559;SDS011;23398;50.928;7.084;2023-08-06T12:00:06;2.08;;;1.30;;
37559;SDS011;23398;50.928;7.084;2023-08-06T12:02:34;4.50;;;2.00;;
37559;SDS011;23398;50.928;7.084;2023-08-06T12:05:02;4.15;;;1.98;;
37559;SDS011;23398;50.928;7.084;2023-08-06T12:07:30;2.63;;;1.20;;
37559;SDS011;23398;50.928;7.084;2023-08-06T12:09:57;2.85;;;1.23;;
37559;SDS011;23398;50.928;7.084;2023-08-06T12:12:23;1.98;;;1.15;;
37559;SDS011;23398;50.928;7.084;2023-08-06T12:14:49;2.75;;;1.33;;
37559;SDS011;23398;50.928;7.084;2023-08-06T12:17:15;1.60;;;1.13;;
37559;SDS011;23398;50.928;7.084;2023-08-06T12:19:40;1.58;;;1.00;;
37559;SDS011;23398;50.928;7.084;2023-08-06T12:22:06;3.03;;;1.25;;
37559;SDS011;23398;50.928;7.084;2023-08-06T12:24:31;1.65;;;1.15;;
37559;SDS011;23398;50.928;7.084;2023-08-06T12:27:00;2.30;;;1.10;;
37559;SDS011;23398;50.928;7.084;2023-08-06T12:29:27;4.53;;;1.02;;
37559;SDS011;23398;50.928;7.084;2023-08-06T12:31:53;3.10;;;1.20;;
37559;SDS011;23398;50.928;7.084;2023-08-06T12:34:18;1.75;;;1.05;;
37559;SDS011;23398;50.928;7.084;2023-08-06T12:36:44;2.30;;;1.20;;
37559;SDS011;23398;50.928;7.084;2023-08-06T12:39:10;2.17;;;1.20;;
37559;SDS011;23398;50.928;7.084;2023-08-06T12:41:35;2.20;;;0.93;;
37559;SDS011;23398;50.928;7.084;2023-08-06T12:44:01;2.05;;;1.20;;
37559;SDS011;23398;50.928;7.084;2023-08-06T12:46:26;2.40;;;1.20;;
37559;SDS011;23398;50.928;7.084;2023-08-06T12:48:52;1.65;;;0.90;;
37559;SDS011;23398;50.928;7.084;2023-08-06T12:51:17;2.47;;;1.02;;
37559;SDS011;23398;50.928;7.084;2023-08-06T12:53:43;2.30;;;1.08;;
37559;SDS011;23398;50.928;7.084;2023-08-06T12:56:09;1.98;;;1.00;;
37559;SDS011;23398;50.928;7.084;2023-08-06T12:58:34;2.60;;;1.20;;
37559;SDS011;23398;50.928;7.084;2023-08-06T13:01:00;3.20;;;1.10;;
37559;SDS011;23398;50.928;7.084;2023-08-06T13:03:25;2.00;;;1.10;;
37559;SDS011;23398;50.928;7.084;2023-08-06T13:05:51;2.75;;;1.30;;
37559;SDS011;23398;50.928;7.084;2023-08-06T13:08:17;3.25;;;1.25;;
37559;SDS011;23398;50.928;7.084;2023-08-06T13:10:42;2.20;;;1.10;;
37559;SDS011;23398;50.928;7.084;2023-08-06T13:13:08;1.90;;;1.20;;
37559;SDS011;23398;50.928;7.084;2023-08-06T13:15:35;2.50;;;1.20;;
37559;SDS011;23398;50.928;7.084;2023-08-06T13:18:01;2.97;;;1.15;;
37559;SDS011;23398;50.928;7.084;2023-08-06T13:20:27;1.83;;;1.20;;
37559;SDS011;23398;50.928;7.084;2023-08-06T13:22:55;2.47;;;1.33;;
37559;SDS011;23398;50.928;7.084;2023-08-06T13:25:20;2.38;;;1.38;;
37559;SDS011;23398;50.928;7.084;2023-08-06T13:27:46;2.72;;;1.35;;
37559;SDS011;23398;50.928;7.084;2023-08-06T13:30:12;2.63;;;1.40;;
37559;SDS011;23398;50.928;7.084;2023-08-06T13:32:38;2.10;;;1.35;;
37559;SDS011;23398;50.928;7.084;2023-08-06T13:35:04;2.42;;;1.40;;
37559;SDS011;23398;50.928;7.084;2023-08-06T13:37:30;2.75;;;1.30;;
37559;SDS011;23398;50.928;7.084;2023-08-06T13:39:55;1.60;;;1.38;;
37559;SDS011;23398;50.928;7.084;2023-08-06T13:42:21;1.80;;;1.20;;
37559;SDS011;23398;50.928;7.084;2023-08-06T13:44:47;1.80;;;1.30;;
37559;SDS011;23398;50.928;7.084;2023-08-06T13:47:12;2.80;;;1.60;;
37559;SDS011;23398;50.928;7.084;2023-08-06T13:49:38;3.42;;;1.50;;
37559;SDS011;23398;50.928;7.084;2023-08-06T13:52:04;2.08;;;1.10;;
37559;SDS011;23398;50.928;7.084;2023-08-06T13:54:29;2.88;;;1.35;;
37559;SDS011;23398;50.928;7.084;2023-08-06T13:56:55;1.30;;;1.20;;
37559;SDS011;23398;50.928;7.084;2023-08-06T13:59:21;1.90;;;1.45;;
37559;SDS011;23398;50.928;7.084;2023-08-06T14:01:49;3.15;;;1.10;;
37559;SDS011;23398;50.928;7.084;2023-08-06T14:04:15;1.48;;;1.10;;
37559;SDS011;23398;50.928;7.084;2023-08-06T14:06:40;3.17;;;1.30;;
37559;SDS011;23398;50.928;7.084;2023-08-06T14:09:06;2.72;;;1.60;;
37559;SDS011;23398;50.928;7.084;2023-08-06T14:11:31;3.30;;;1.70;;
37559;SDS011;23398;50.928;7.084;2023-08-06T14:13:57;1.40;;;1.30;;
37559;SDS011;23398;50.928;7.084;2023-08-06T14:16:23;2.35;;;1.33;;
37559;SDS011;23398;50.928;7.084;2023-08-06T14:18:48;1.77;;;1.35;;
37559;SDS011;23398;50.928;7.084;2023-08-06T14:21:13;3.35;;;1.40;;
37559;SDS011;23398;50.928;7.084;2023-08-06T14:23:39;2.22;;;1.35;;
37559;SDS011;23398;50.928;7.084;2023-08-06T14:26:06;1.48;;;1.20;;
37559;SDS011;23398;50.928;7.084;2023-08-06T14:28:32;2.05;;;1.38;;
37559;SDS011;23398;50.928;7.084;2023-08-06T14:30:58;2.45;;;1.20;;
37559;SDS011;23398;50.928;7.084;2023-08-06T14:33:24;2.08;;;1.20;;
37559;SDS011;23398;50.928;7.084;2023-08-06T14:35:49;1.88;;;0.98;;
37559;SDS011;23398;50.928;7.084;2023-08-06T14:38:15;2.25;;;1.02;;
37559;SDS011;23398;50.928;7.084;2023-08-06T14:40:41;3.25;;;1.10;;
37559;SDS011;23398;50.928;7.084;2023-08-06T14:43:08;1.80;;;1.05;;
37559;SDS011;23398;50.928;7.084;2023-08-06T14:45:37;1.15;;;0.90;;
37559;SDS011;23398;50.928;7.084;2023-08-06T14:48:04;1.90;;;0.90;;
37559;SDS011;23398;50.928;7.084;2023-08-06T14:50:29;1.95;;;0.98;;
37559;SDS011;23398;50.928;7.084;2023-08-06T14:52:55;1.63;;;0.95;;
37559;SDS011;23398;50.928;7.084;2023-08-06T14:55:24;2.10;;;0.93;;
37559;SDS011;23398;50.928;7.084;2023-08-06T14:57:50;1.17;;;0.82;;